createdAt,value
2022-12-05T00:00:55.176Z,18.85
2022-12-05T00:03:22.643Z,19.25
2022-12-05T00:05:49.979Z,15.20
2022-12-05T00:08:17.298Z,17.60
2022-12-05T00:10:44.560Z,16.52
2022-12-05T00:13:11.663Z,17.00
2022-12-05T00:15:39.429Z,17.10
2022-12-05T00:18:06.939Z,17.20
2022-12-05T00:20:34.079Z,16.83
2022-12-05T00:23:01.206Z,17.20
2022-12-05T00:25:28.479Z,18.20
2022-12-05T00:27:55.624Z,18.42
2022-12-05T00:30:22.756Z,16.60
2022-12-05T00:32:49.924Z,15.90
2022-12-05T00:35:17.103Z,17.38
2022-12-05T00:37:44.328Z,15.88
2022-12-05T00:40:11.693Z,15.38
2022-12-05T00:42:38.905Z,16.20
2022-12-05T00:45:06.467Z,18.08
2022-12-05T00:47:36.926Z,18.95
2022-12-05T00:50:05.127Z,20.02
2022-12-05T00:52:32.225Z,16.42
2022-12-05T00:54:59.407Z,18.25
2022-12-05T00:57:26.537Z,15.70
2022-12-05T00:59:53.681Z,18.60
2022-12-05T01:02:20.800Z,15.57
2022-12-05T01:04:47.966Z,14.55
2022-12-05T01:07:15.110Z,14.70
2022-12-05T01:09:42.205Z,17.17
2022-12-05T01:12:09.358Z,16.73
2022-12-05T01:14:36.463Z,17.38
2022-12-05T01:17:03.722Z,14.38
2022-12-05T01:19:32.812Z,16.92
2022-12-05T01:22:00.348Z,17.80
2022-12-05T01:24:27.906Z,18.70
2022-12-05T01:26:55.421Z,16.00
2022-12-05T01:29:23.593Z,17.17
2022-12-05T01:31:50.943Z,19.48
2022-12-05T01:34:18.703Z,16.02
2022-12-05T01:36:46.237Z,14.73
2022-12-05T01:39:14.275Z,15.93
2022-12-05T01:41:43.473Z,16.35
2022-12-05T01:44:13.688Z,14.75
2022-12-05T01:46:45.442Z,15.20
2022-12-05T01:49:21.632Z,17.88
2022-12-05T01:51:50.959Z,18.25
2022-12-05T01:54:19.244Z,17.40
2022-12-05T01:56:49.000Z,19.05
2022-12-05T01:59:17.324Z,16.70
2022-12-05T02:01:44.610Z,18.05
2022-12-05T02:04:11.796Z,18.33
2022-12-05T02:06:38.970Z,17.90
2022-12-05T02:09:06.369Z,17.42
2022-12-05T02:11:34.079Z,18.25
2022-12-05T02:14:15.085Z,16.92
2022-12-05T02:16:48.757Z,18.23
2022-12-05T02:19:19.089Z,19.25
2022-12-05T02:22:01.498Z,18.63
2022-12-05T02:24:35.650Z,20.35
2022-12-05T02:27:20.161Z,21.00
2022-12-05T02:29:56.872Z,19.92
2022-12-05T02:33:02.801Z,19.42
2022-12-05T02:35:29.943Z,21.88
2022-12-05T02:37:57.078Z,21.27
2022-12-05T02:40:31.298Z,21.42
2022-12-05T02:43:09.366Z,20.52
2022-12-05T02:45:37.730Z,21.27
2022-12-05T02:48:05.481Z,21.50
2022-12-05T02:50:34.943Z,17.17
2022-12-05T02:53:04.628Z,19.38
2022-12-05T02:55:33.060Z,20.17
2022-12-05T02:58:01.762Z,20.05
2022-12-05T03:00:28.942Z,21.23
2022-12-05T03:02:57.590Z,19.73
2022-12-05T03:05:41.236Z,19.52
2022-12-05T03:08:12.394Z,19.42
2022-12-05T03:10:42.072Z,17.25
2022-12-05T03:13:15.507Z,18.10
2022-12-05T03:15:46.595Z,18.67
2022-12-05T03:18:19.887Z,18.48
2022-12-05T03:20:49.308Z,18.35
2022-12-05T03:23:20.760Z,17.75
2022-12-05T03:25:47.903Z,20.25
2022-12-05T03:28:25.671Z,18.08
2022-12-05T03:30:54.404Z,20.60
2022-12-05T03:33:24.564Z,21.52
2022-12-05T03:36:05.082Z,19.10
2022-12-05T03:38:35.798Z,20.65
2022-12-05T03:41:02.947Z,18.70
2022-12-05T03:43:37.280Z,19.65
2022-12-05T03:46:07.465Z,18.80
2022-12-05T03:48:49.094Z,17.88
2022-12-05T03:51:17.465Z,20.27
2022-12-05T03:54:10.855Z,21.42
2022-12-05T03:56:40.548Z,16.98
2022-12-05T03:59:16.614Z,17.08
2022-12-05T04:01:44.472Z,18.80
2022-12-05T04:04:25.270Z,16.52
2022-12-05T04:06:54.310Z,19.73
2022-12-05T04:09:23.984Z,17.05
2022-12-05T04:11:53.804Z,15.57
2022-12-05T04:14:25.993Z,18.70
2022-12-05T04:17:08.740Z,17.30
2022-12-05T04:20:10.174Z,19.88
2022-12-05T04:22:37.796Z,17.33
2022-12-05T04:25:25.080Z,16.85
2022-12-05T04:27:55.149Z,19.58
2022-12-05T04:30:23.637Z,17.90
2022-12-05T04:32:55.115Z,15.43
2022-12-05T04:35:26.880Z,17.25
2022-12-05T04:37:56.710Z,20.10
2022-12-05T04:40:29.128Z,17.95
2022-12-05T04:42:57.339Z,18.02
2022-12-05T04:45:25.476Z,18.00
2022-12-05T04:47:56.199Z,16.88
2022-12-05T04:50:24.390Z,17.15
2022-12-05T04:52:53.889Z,16.90
2022-12-05T04:55:25.829Z,16.30
2022-12-05T04:57:56.468Z,15.55
2022-12-05T05:00:23.580Z,18.60
2022-12-05T05:03:01.575Z,18.42
2022-12-05T05:05:29.266Z,18.77
2022-12-05T05:07:56.553Z,17.98
2022-12-05T05:10:27.943Z,17.90
2022-12-05T05:12:55.253Z,18.50
2022-12-05T05:15:22.363Z,17.25
2022-12-05T05:17:49.490Z,18.85
2022-12-05T05:20:26.895Z,17.63
2022-12-05T05:22:57.904Z,17.85
2022-12-05T05:25:25.351Z,20.92
2022-12-05T05:27:53.841Z,17.90
2022-12-05T05:30:21.482Z,20.88
2022-12-05T05:32:48.853Z,18.08
2022-12-05T05:35:16.330Z,20.60
2022-12-05T05:37:44.079Z,20.05
2022-12-05T05:40:13.598Z,19.33
2022-12-05T05:42:48.822Z,19.77
2022-12-05T05:45:16.474Z,19.75
2022-12-05T05:47:43.803Z,19.40
2022-12-05T05:50:15.011Z,19.30
2022-12-05T05:52:45.094Z,19.52
2022-12-05T05:55:12.498Z,19.05
2022-12-05T05:57:39.610Z,21.33
2022-12-05T06:00:08.318Z,22.85
2022-12-05T06:02:36.599Z,20.85
2022-12-05T06:05:04.131Z,23.27
2022-12-05T06:07:31.511Z,21.00
2022-12-05T06:09:59.038Z,21.83
2022-12-05T06:12:26.377Z,20.30
2022-12-05T06:14:53.530Z,19.27
2022-12-05T06:17:20.767Z,21.25
2022-12-05T06:19:47.885Z,20.10
2022-12-05T06:22:15.026Z,20.10
2022-12-05T06:24:42.283Z,17.70
2022-12-05T06:27:09.426Z,20.45
2022-12-05T06:29:36.640Z,23.23
2022-12-05T06:32:03.863Z,26.88
2022-12-05T06:34:32.611Z,21.58
2022-12-05T06:37:00.115Z,20.00
2022-12-05T06:39:27.385Z,19.48
2022-12-05T06:41:54.642Z,19.17
2022-12-05T06:44:22.000Z,20.70
2022-12-05T06:46:49.648Z,24.30
2022-12-05T06:49:16.787Z,19.77
2022-12-05T06:51:44.362Z,19.77
2022-12-05T06:54:15.024Z,20.45
2022-12-05T06:56:42.197Z,19.52
2022-12-05T06:59:09.452Z,22.90
2022-12-05T07:01:40.683Z,20.42
2022-12-05T07:04:13.450Z,22.88
2022-12-05T07:06:43.129Z,19.58
2022-12-05T07:09:13.402Z,18.33
2022-12-05T07:11:40.548Z,19.05
2022-12-05T07:14:14.867Z,22.05
2022-12-05T07:16:46.564Z,20.30
2022-12-05T07:19:13.778Z,17.58
2022-12-05T07:21:40.892Z,18.80
2022-12-05T07:24:08.065Z,16.10
2022-12-05T07:26:35.741Z,15.50
2022-12-05T07:29:02.864Z,15.85
2022-12-05T07:31:30.134Z,18.60
2022-12-05T07:33:57.291Z,20.00
2022-12-05T07:36:24.593Z,17.75
2022-12-05T07:38:56.057Z,17.63
2022-12-05T07:41:24.649Z,16.70
2022-12-05T07:43:52.491Z,17.98
2022-12-05T07:46:20.184Z,17.88
2022-12-05T07:48:48.477Z,18.48
2022-12-05T07:51:15.987Z,16.95
2022-12-05T07:53:44.339Z,18.25
2022-12-05T07:56:18.931Z,17.65
2022-12-05T07:58:47.084Z,16.95
2022-12-05T08:01:16.306Z,18.67
2022-12-05T08:03:43.514Z,15.20
2022-12-05T08:06:14.927Z,18.35
2022-12-05T08:08:42.184Z,19.10
2022-12-05T08:11:11.070Z,17.00
2022-12-05T08:13:38.359Z,18.98
2022-12-05T08:16:10.333Z,16.10
2022-12-05T08:18:37.781Z,15.63
2022-12-05T08:21:08.834Z,19.13
2022-12-05T08:23:36.306Z,18.52
2022-12-05T08:26:08.354Z,19.70
2022-12-05T08:28:35.685Z,17.17
2022-12-05T08:31:28.828Z,16.42
2022-12-05T08:33:59.415Z,16.35
2022-12-05T08:36:27.498Z,15.20
2022-12-05T08:38:59.048Z,16.00
2022-12-05T08:41:28.948Z,16.73
2022-12-05T08:44:03.039Z,15.38
2022-12-05T08:46:30.923Z,19.75
2022-12-05T08:48:58.185Z,15.30
2022-12-05T08:51:25.601Z,17.85
2022-12-05T08:53:52.698Z,16.05
2022-12-05T08:56:26.365Z,17.85
2022-12-05T08:58:55.027Z,14.97
2022-12-05T09:01:30.419Z,14.32
2022-12-05T09:03:57.975Z,14.57
2022-12-05T09:06:25.660Z,15.43
2022-12-05T09:08:56.957Z,19.20
2022-12-05T09:11:25.995Z,15.90
2022-12-05T09:13:54.046Z,15.45
2022-12-05T09:16:22.476Z,17.15
2022-12-05T09:18:50.512Z,17.80
2022-12-05T09:21:22.300Z,16.60
2022-12-05T09:23:49.590Z,16.65
2022-12-05T09:26:17.662Z,17.70
2022-12-05T09:28:45.086Z,15.65
2022-12-05T09:31:14.179Z,14.85
2022-12-05T09:33:41.579Z,17.42
2022-12-05T09:36:13.250Z,14.13
2022-12-05T09:38:41.008Z,14.65
2022-12-05T09:41:21.723Z,13.32
2022-12-05T09:44:03.847Z,14.52
2022-12-05T09:46:46.591Z,15.98
2022-12-05T09:49:14.349Z,14.65
2022-12-05T09:51:45.154Z,15.65
2022-12-05T09:54:13.837Z,15.38
2022-12-05T09:56:41.559Z,14.18
2022-12-05T09:59:13.034Z,19.85
2022-12-05T10:01:46.854Z,15.25
2022-12-05T10:04:30.284Z,13.98
2022-12-05T10:07:02.618Z,15.75
2022-12-05T10:09:35.988Z,17.65
2022-12-05T10:12:18.183Z,15.32
2022-12-05T10:15:03.969Z,18.38
2022-12-05T10:17:36.128Z,15.68
2022-12-05T10:20:05.920Z,15.88
2022-12-05T10:22:36.161Z,14.73
2022-12-05T10:25:04.691Z,16.70
2022-12-05T10:27:39.822Z,14.98
2022-12-05T10:30:14.939Z,14.20
2022-12-05T10:32:48.138Z,15.50
2022-12-05T10:35:20.391Z,14.63
2022-12-05T10:37:49.841Z,15.15
2022-12-05T10:40:17.153Z,14.98
2022-12-05T10:42:44.981Z,14.05
2022-12-05T10:45:17.363Z,14.15
2022-12-05T10:47:44.841Z,14.38
2022-12-05T10:50:20.347Z,12.23
2022-12-05T10:52:48.041Z,15.90
2022-12-05T10:55:17.199Z,15.48
2022-12-05T10:57:49.587Z,14.98
2022-12-05T11:00:17.885Z,14.20
2022-12-05T11:02:48.589Z,14.13
2022-12-05T11:05:16.099Z,14.93
2022-12-05T11:07:49.469Z,13.80
2022-12-05T11:10:23.646Z,16.45
2022-12-05T11:12:54.459Z,15.20
2022-12-05T11:15:24.924Z,14.40
2022-12-05T11:17:53.224Z,14.02
2022-12-05T11:20:20.348Z,15.65
2022-12-05T11:22:49.485Z,15.13
2022-12-05T11:25:28.783Z,14.18
2022-12-05T11:28:00.947Z,14.07
2022-12-05T11:30:29.392Z,15.40
2022-12-05T11:33:15.551Z,14.70
2022-12-05T11:35:42.980Z,14.98
2022-12-05T11:38:12.512Z,12.88
2022-12-05T11:40:58.546Z,14.43
2022-12-05T11:43:44.449Z,14.38
2022-12-05T11:46:23.600Z,13.10
2022-12-05T11:48:53.418Z,11.75
2022-12-05T11:51:23.681Z,11.68
2022-12-05T11:54:09.356Z,13.52
2022-12-05T11:56:42.451Z,11.25
2022-12-05T11:59:19.037Z,12.07
2022-12-05T12:01:52.073Z,15.48
2022-12-05T12:04:37.713Z,16.05
2022-12-05T12:07:23.194Z,11.48
2022-12-05T12:10:10.008Z,14.80
2022-12-05T12:12:54.994Z,12.13
2022-12-05T12:15:41.116Z,15.05
2022-12-05T12:18:14.421Z,13.70
2022-12-05T12:20:41.542Z,12.10
2022-12-05T12:23:27.361Z,11.48
2022-12-05T12:26:03.734Z,12.50
2022-12-05T12:28:31.102Z,12.35
2022-12-05T12:31:01.207Z,10.20
2022-12-05T12:33:34.934Z,10.18
2022-12-05T12:36:28.964Z,11.35
2022-12-05T12:39:16.344Z,13.57
2022-12-05T12:41:49.280Z,9.02
2022-12-05T12:44:26.596Z,10.00
2022-12-05T12:46:56.131Z,9.48
2022-12-05T12:49:39.769Z,9.27
2022-12-05T12:52:17.864Z,11.88
2022-12-05T12:55:06.031Z,8.50
2022-12-05T12:57:33.188Z,10.73
2022-12-05T13:00:12.196Z,9.05
2022-12-05T13:02:45.538Z,11.85
2022-12-05T13:05:33.819Z,9.45
2022-12-05T13:08:05.329Z,8.88
2022-12-05T13:10:35.947Z,9.00
2022-12-05T13:13:03.854Z,10.68
2022-12-05T13:15:41.090Z,8.68
2022-12-05T13:18:12.251Z,7.30
2022-12-05T13:20:40.360Z,8.55
2022-12-05T13:23:09.219Z,6.55
2022-12-05T13:25:40.997Z,6.35
2022-12-05T13:28:21.319Z,6.57
2022-12-05T13:30:57.902Z,6.50
2022-12-05T13:33:31.415Z,6.20
2022-12-05T13:36:22.677Z,4.90
2022-12-05T13:39:08.433Z,7.15
2022-12-05T13:42:16.615Z,6.00
2022-12-05T13:44:52.865Z,4.55
2022-12-05T13:47:40.263Z,4.85
2022-12-05T13:50:07.414Z,6.10
2022-12-05T13:52:47.205Z,4.35
2022-12-05T13:55:20.467Z,3.88
2022-12-05T13:57:49.081Z,5.00
2022-12-05T14:00:16.210Z,4.30
2022-12-05T14:02:43.489Z,5.80
2022-12-05T14:05:19.934Z,4.57
2022-12-05T14:07:47.138Z,3.17
2022-12-05T14:10:18.726Z,4.07
2022-12-05T14:12:45.823Z,4.03
2022-12-05T14:15:31.631Z,4.43
2022-12-05T14:18:03.349Z,5.43
2022-12-05T14:20:30.482Z,3.85
2022-12-05T14:23:14.385Z,4.15
2022-12-05T14:26:05.617Z,4.18
2022-12-05T14:28:42.609Z,3.95
2022-12-05T14:31:28.263Z,5.03
2022-12-05T14:34:17.082Z,5.10
2022-12-05T14:36:56.619Z,5.00
2022-12-05T14:39:31.288Z,4.93
2022-12-05T14:41:59.180Z,4.63
2022-12-05T14:44:32.031Z,6.72
2022-12-05T14:47:05.595Z,3.90
2022-12-05T14:50:05.508Z,4.55
2022-12-05T14:52:34.062Z,5.57
2022-12-05T14:55:02.960Z,5.47
2022-12-05T14:57:31.238Z,5.53
2022-12-05T15:00:00.637Z,4.63
2022-12-05T15:02:31.334Z,5.45
2022-12-05T15:05:03.006Z,5.68
2022-12-05T15:07:35.291Z,4.82
2022-12-05T15:10:14.702Z,5.30
2022-12-05T15:12:44.190Z,5.57
2022-12-05T15:15:21.552Z,4.78
2022-12-05T15:18:06.679Z,7.88
2022-12-05T15:20:44.905Z,4.40
2022-12-05T15:23:30.723Z,5.55
2022-12-05T15:26:07.688Z,4.47
2022-12-05T15:29:06.560Z,5.15
2022-12-05T15:31:35.767Z,5.43
2022-12-05T15:34:21.112Z,3.95
2022-12-05T15:39:23.642Z,5.35
2022-12-05T15:41:51.753Z,3.80
2022-12-05T15:44:25.291Z,4.05
2022-12-05T15:46:55.468Z,3.45
2022-12-05T15:49:27.151Z,4.65
2022-12-05T15:51:57.634Z,4.60
2022-12-05T15:54:31.287Z,6.45
2022-12-05T15:57:10.010Z,4.75
2022-12-05T15:59:43.468Z,8.25
2022-12-05T16:02:15.201Z,3.38
2022-12-05T16:04:50.899Z,3.83
2022-12-05T16:07:18.520Z,4.75
2022-12-05T16:09:47.286Z,4.95
2022-12-05T16:12:23.546Z,6.50
2022-12-05T16:15:00.702Z,3.78
2022-12-05T16:17:30.397Z,4.53
2022-12-05T16:20:13.587Z,4.82
2022-12-05T16:22:45.938Z,4.80
2022-12-05T16:25:17.181Z,4.78
2022-12-05T16:27:46.308Z,4.10
2022-12-05T16:30:13.487Z,5.13
2022-12-05T16:32:41.911Z,6.00
2022-12-05T16:35:27.437Z,4.03
2022-12-05T16:38:24.669Z,3.95
2022-12-05T16:41:02.256Z,4.15
2022-12-05T16:43:30.194Z,3.47
2022-12-05T16:45:59.176Z,5.57
2022-12-05T16:48:32.639Z,5.80
2022-12-05T16:51:14.823Z,6.03
2022-12-05T16:53:43.866Z,5.93
2022-12-05T16:56:13.370Z,5.82
2022-12-05T16:58:40.502Z,6.90
2022-12-05T17:01:09.710Z,5.13
2022-12-05T17:03:36.995Z,6.18
2022-12-05T17:06:04.482Z,3.40
2022-12-05T17:08:31.667Z,3.00
2022-12-05T17:10:58.959Z,3.58
2022-12-05T17:13:26.179Z,3.20
2022-12-05T17:15:53.321Z,3.75
2022-12-05T17:18:25.304Z,7.07
2022-12-05T17:20:55.759Z,4.43
2022-12-05T17:23:22.890Z,3.78
2022-12-05T17:25:51.602Z,2.60
2022-12-05T17:28:18.891Z,2.90
2022-12-05T17:30:46.051Z,2.22
2022-12-05T17:33:13.980Z,3.50
2022-12-05T17:35:41.134Z,3.35
2022-12-05T17:38:08.766Z,3.72
2022-12-05T17:40:35.969Z,3.08
2022-12-05T17:43:03.150Z,3.10
2022-12-05T17:45:30.911Z,2.70
2022-12-05T17:47:58.521Z,2.60
2022-12-05T17:50:26.648Z,2.03
2022-12-05T17:52:55.975Z,2.40
2022-12-05T17:55:28.244Z,4.18
2022-12-05T17:57:56.039Z,3.28
2022-12-05T18:00:24.089Z,3.17
2022-12-05T18:02:52.295Z,2.75
2022-12-05T18:05:19.592Z,2.97
2022-12-05T18:07:47.163Z,4.05
2022-12-05T18:10:16.850Z,2.90
2022-12-05T18:12:44.230Z,5.00
2022-12-05T18:15:11.625Z,3.78
2022-12-05T18:17:39.095Z,3.65
2022-12-05T18:20:08.019Z,3.60
2022-12-05T18:22:35.424Z,10.68
2022-12-05T18:25:03.535Z,6.40
2022-12-05T18:27:31.445Z,3.90
2022-12-05T18:29:58.614Z,2.67
2022-12-05T18:32:25.898Z,6.55
2022-12-05T18:34:53.257Z,3.25
2022-12-05T18:37:22.241Z,4.90
2022-12-05T18:39:49.459Z,2.92
2022-12-05T18:42:16.603Z,3.17
2022-12-05T18:44:43.902Z,3.28
2022-12-05T18:47:11.069Z,2.67
2022-12-05T18:49:38.786Z,2.33
2022-12-05T18:52:05.936Z,3.05
2022-12-05T18:54:33.097Z,3.95
2022-12-05T18:57:00.286Z,5.78
2022-12-05T18:59:28.723Z,5.65
2022-12-05T19:01:56.036Z,4.30
2022-12-05T19:04:23.306Z,6.50
2022-12-05T19:06:54.589Z,4.47
2022-12-05T19:09:22.792Z,5.55
2022-12-05T19:11:51.406Z,3.55
2022-12-05T19:14:19.475Z,3.78
2022-12-05T19:16:48.496Z,4.38
2022-12-05T19:19:17.750Z,5.40
2022-12-05T19:21:45.677Z,5.50
2022-12-05T19:24:14.576Z,5.35
2022-12-05T19:26:41.942Z,3.88
2022-12-05T19:29:09.142Z,4.72
2022-12-05T19:31:36.317Z,4.63
2022-12-05T19:34:05.371Z,3.25
2022-12-05T19:36:35.593Z,3.33
2022-12-05T19:39:06.734Z,5.07
2022-12-05T19:41:33.911Z,4.10
2022-12-05T19:44:01.570Z,3.50
2022-12-05T19:46:29.774Z,3.80
2022-12-05T19:48:57.847Z,4.70
2022-12-05T19:51:25.343Z,6.13
2022-12-05T19:53:52.691Z,4.63
2022-12-05T19:56:21.267Z,5.57
2022-12-05T19:58:48.953Z,5.05
2022-12-05T20:01:17.712Z,7.03
2022-12-05T20:03:47.953Z,7.43
2022-12-05T20:06:15.331Z,6.88
2022-12-05T20:08:42.645Z,5.15
2022-12-05T20:11:11.346Z,3.92
2022-12-05T20:13:47.602Z,3.67
2022-12-05T20:16:16.131Z,4.43
2022-12-05T20:18:43.380Z,4.45
2022-12-05T20:21:11.866Z,4.38
2022-12-05T20:23:39.287Z,4.03
2022-12-05T20:26:10.815Z,4.10
2022-12-05T20:28:38.545Z,3.83
2022-12-05T20:31:13.410Z,4.65
2022-12-05T20:36:09.376Z,2.85
2022-12-05T20:38:36.500Z,3.33
2022-12-05T20:41:07.674Z,3.53
2022-12-05T20:43:35.130Z,2.70
2022-12-05T20:46:06.244Z,3.35
2022-12-05T20:48:34.081Z,4.10
2022-12-05T20:51:08.136Z,3.17
2022-12-05T20:53:36.007Z,4.30
2022-12-05T20:56:04.254Z,2.47
2022-12-05T20:58:31.439Z,3.30
2022-12-05T21:00:59.680Z,4.32
2022-12-05T21:03:26.927Z,3.42
2022-12-05T21:05:54.067Z,2.95
2022-12-05T21:08:22.071Z,3.63
2022-12-05T21:10:49.932Z,5.50
2022-12-05T21:13:17.422Z,2.83
2022-12-05T21:15:44.652Z,2.60
2022-12-05T21:18:12.074Z,3.15
2022-12-05T21:20:42.309Z,2.85
2022-12-05T21:23:10.540Z,8.75
2022-12-05T21:25:37.693Z,4.80
2022-12-05T21:28:04.889Z,2.70
2022-12-05T21:30:32.013Z,2.05
2022-12-05T21:32:59.165Z,2.72
2022-12-05T21:35:26.320Z,3.60
2022-12-05T21:37:53.497Z,3.83
2022-12-05T21:40:20.618Z,3.20
2022-12-05T21:42:47.724Z,2.65
2022-12-05T21:45:14.863Z,2.65
2022-12-05T21:47:42.182Z,4.43
2022-12-05T21:50:09.531Z,5.05
2022-12-05T21:52:40.576Z,4.15
2022-12-05T21:55:08.333Z,2.97
2022-12-05T21:57:38.717Z,2.53
2022-12-05T22:00:09.892Z,2.75
2022-12-05T22:02:37.087Z,2.55
2022-12-05T22:05:04.475Z,2.58
2022-12-05T22:07:31.681Z,2.42
2022-12-05T22:09:59.069Z,3.22
2022-12-05T22:12:26.914Z,2.50
2022-12-05T22:14:54.294Z,3.55
2022-12-05T22:17:21.518Z,4.43
2022-12-05T22:19:48.677Z,3.58
2022-12-05T22:22:15.818Z,3.05
2022-12-05T22:24:42.979Z,4.40
2022-12-05T22:27:10.146Z,3.97
2022-12-05T22:29:37.326Z,3.17
2022-12-05T22:32:04.514Z,4.30
2022-12-05T22:34:31.641Z,5.72
2022-12-05T22:36:58.859Z,4.03
2022-12-05T22:39:26.024Z,3.72
2022-12-05T22:41:53.169Z,5.28
2022-12-05T22:44:20.310Z,6.45
2022-12-05T22:46:47.483Z,6.57
2022-12-05T22:49:14.697Z,7.07
2022-12-05T22:51:41.983Z,7.63
2022-12-05T22:54:09.143Z,5.70
2022-12-05T22:56:36.275Z,6.07
2022-12-05T22:59:03.438Z,5.50
2022-12-05T23:01:32.337Z,5.93
2022-12-05T23:04:00.936Z,5.25
2022-12-05T23:06:28.638Z,5.68
2022-12-05T23:08:56.210Z,4.80
2022-12-05T23:11:24.012Z,5.15
2022-12-05T23:13:51.574Z,4.60
2022-12-05T23:16:23.634Z,4.55
2022-12-05T23:18:53.485Z,3.92
2022-12-05T23:21:20.718Z,3.67
2022-12-05T23:23:48.595Z,3.95
2022-12-05T23:26:16.777Z,3.10
2022-12-05T23:28:44.871Z,4.50
2022-12-05T23:31:12.668Z,6.25
2022-12-05T23:33:40.293Z,5.70
2022-12-05T23:36:08.216Z,4.10
2022-12-05T23:38:35.905Z,5.78
2022-12-05T23:41:03.114Z,5.60
2022-12-05T23:43:31.164Z,4.30
2022-12-05T23:45:58.442Z,4.80
2022-12-05T23:48:25.788Z,5.07
2022-12-05T23:51:00.536Z,5.05
2022-12-05T23:53:28.169Z,5.35
2022-12-05T23:55:55.383Z,7.13
2022-12-05T23:58:22.574Z,5.78
